Time;durP1;ratioP1;P1;durP2;ratioP2;P2;SDS_P1;SDS_P2;PMS_P1;PMS_P2;Temp;Humidity;BMP_temperature;BMP_pressure;BME280_temperature;BME280_humidity;BME280_pressure;Samples;Min_cycle;Max_cycle;Signal;HPM_P1;HPM_P2
2022/01/15 00:01:07;;;;;;;7.57;1.33;;;;;;;;;;5070116;28;21064;-69
2022/01/15 00:03:34;;;;;;;6.67;1.10;;;;;;;;;;5051299;28;21053;-69
2022/01/15 00:06:00;;;;;;;5.63;1.37;;;;;;;;;;5069721;28;20442;-70
2022/01/15 00:08:27;;;;;;;5.73;1.47;;;;;;;;;;5053566;28;20495;-69
2022/01/15 00:10:53;;;;;;;7.10;1.20;;;;;;;;;;5069990;28;20531;-68
2022/01/15 00:13:27;;;;;;;7.73;1.40;;;;;;;;;;5069880;28;20495;-68
2022/01/15 00:16:05;;;;;;;6.87;1.13;;;;;;;;;;5051904;28;20448;-68
2022/01/15 00:18:48;;;;;;;4.60;1.03;;;;;;;;;;5070529;28;20435;-68
2022/01/15 00:21:14;;;;;;;5.80;0.90;;;;;;;;;;5069348;28;20894;-68
2022/01/15 00:23:42;;;;;;;5.80;1.40;;;;;;;;;;5070126;28;20474;-68
2022/01/15 00:26:09;;;;;;;4.97;1.50;;;;;;;;;;5050683;28;20440;-68
2022/01/15 00:28:35;;;;;;;6.27;1.33;;;;;;;;;;5051865;28;20468;-68
2022/01/15 00:31:02;;;;;;;3.63;1.20;;;;;;;;;;5069318;28;21175;-68
2022/01/15 00:33:30;;;;;;;5.97;1.20;;;;;;;;;;5069135;28;20444;-68
2022/01/15 00:35:57;;;;;;;5.57;1.23;;;;;;;;;;5069557;28;20440;-68
2022/01/15 00:38:23;;;;;;;7.00;1.00;;;;;;;;;;5069532;28;20796;-68
2022/01/15 00:40:50;;;;;;;2.27;1.00;;;;;;;;;;5068916;28;20970;-69
2022/01/15 00:43:18;;;;;;;6.43;1.20;;;;;;;;;;5051867;28;20444;-68
2022/01/15 00:45:45;;;;;;;6.43;1.17;;;;;;;;;;5069306;28;20450;-68
2022/01/15 00:48:12;;;;;;;7.90;1.33;;;;;;;;;;5051818;28;20808;-69
2022/01/15 00:50:39;;;;;;;4.60;1.37;;;;;;;;;;5068926;28;21054;-68
2022/01/15 00:53:05;;;;;;;6.47;1.00;;;;;;;;;;5051263;28;21014;-69
2022/01/15 00:55:32;;;;;;;4.83;0.90;;;;;;;;;;5069401;28;20452;-68
2022/01/15 00:57:59;;;;;;;5.63;1.00;;;;;;;;;;5068653;28;20443;-68
2022/01/15 01:00:25;;;;;;;8.67;1.33;;;;;;;;;;5069353;28;20515;-68
2022/01/15 01:02:52;;;;;;;5.93;1.27;;;;;;;;;;5069404;28;20478;-68
2022/01/15 01:38:06;;;;;;;5.83;1.23;;;;;;;;;;5049083;28;20397;-68
2022/01/15 01:40:39;;;;;;;6.93;1.57;;;;;;;;;;5031846;28;20431;-68
2022/01/15 01:45:49;;;;;;;5.53;1.30;;;;;;;;;;5051232;28;20432;-68
2022/01/15 01:48:16;;;;;;;6.77;1.30;;;;;;;;;;5067552;28;20435;-70
2022/01/15 01:50:42;;;;;;;9.70;1.53;;;;;;;;;;5031827;28;21356;-69
2022/01/15 01:53:09;;;;;;;6.40;1.50;;;;;;;;;;5048990;28;20429;-69
2022/01/15 01:55:36;;;;;;;5.00;1.17;;;;;;;;;;5051836;28;20498;-69
2022/01/15 01:58:03;;;;;;;5.37;1.37;;;;;;;;;;5068769;28;20428;-69
2022/01/15 02:00:29;;;;;;;6.53;1.43;;;;;;;;;;5068667;28;20521;-69
2022/01/15 02:02:57;;;;;;;6.37;1.33;;;;;;;;;;5034515;28;20984;-69
2022/01/15 02:05:24;;;;;;;8.40;1.73;;;;;;;;;;5067813;28;20487;-68
2022/01/15 02:07:50;;;;;;;4.67;1.20;;;;;;;;;;5050550;28;20527;-69
2022/01/15 02:10:18;;;;;;;8.07;1.43;;;;;;;;;;5068723;28;20874;-69
2022/01/15 02:12:46;;;;;;;6.47;1.40;;;;;;;;;;5050603;28;20507;-69
2022/01/15 02:15:13;;;;;;;6.73;1.07;;;;;;;;;;5050869;28;20963;-69
2022/01/15 02:17:40;;;;;;;8.97;1.00;;;;;;;;;;5068589;28;20440;-69
2022/01/15 02:25:45;;;;;;;4.23;1.17;;;;;;;;;;5068266;28;20494;-69
2022/01/15 02:28:12;;;;;;;10.37;1.40;;;;;;;;;;5043937;28;20519;-69
2022/01/15 02:30:39;;;;;;;5.60;1.10;;;;;;;;;;5050482;28;20471;-69
2022/01/15 02:33:05;;;;;;;3.33;1.00;;;;;;;;;;5072238;28;21005;-69
2022/01/15 02:35:32;;;;;;;7.10;1.73;;;;;;;;;;5072662;28;20440;-69
2022/01/15 02:38:05;;;;;;;6.20;1.00;;;;;;;;;;5054358;28;20505;-69
2022/01/15 02:40:38;;;;;;;7.73;1.37;;;;;;;;;;5038293;28;20440;-69
2022/01/15 02:43:04;;;;;;;5.13;1.30;;;;;;;;;;5055473;28;20425;-69
2022/01/15 02:45:33;;;;;;;4.77;0.97;;;;;;;;;;5071873;28;20478;-68
2022/01/15 02:48:09;;;;;;;2.73;0.97;;;;;;;;;;5053706;28;20440;-68
2022/01/15 02:50:35;;;;;;;6.40;1.40;;;;;;;;;;5054162;28;20477;-69
2022/01/15 02:53:02;;;;;;;5.60;1.30;;;;;;;;;;5071557;28;20486;-68
2022/01/15 02:55:29;;;;;;;4.67;1.30;;;;;;;;;;5071836;28;20467;-69
2022/01/15 02:57:56;;;;;;;5.17;1.17;;;;;;;;;;5054028;28;20432;-69
2022/01/15 03:00:23;;;;;;;7.83;1.60;;;;;;;;;;5071728;28;20449;-69
2022/01/15 03:02:49;;;;;;;5.93;1.53;;;;;;;;;;5071805;28;20505;-68
2022/01/15 03:05:22;;;;;;;7.27;1.33;;;;;;;;;;5072000;28;20471;-68
2022/01/15 03:07:49;;;;;;;5.07;0.90;;;;;;;;;;5053262;28;20838;-69
2022/01/15 03:10:15;;;;;;;3.70;1.10;;;;;;;;;;5053937;28;20478;-68
2022/01/15 03:12:42;;;;;;;5.47;1.17;;;;;;;;;;5071486;28;20557;-69
2022/01/15 03:15:09;;;;;;;5.77;1.30;;;;;;;;;;5071494;28;21129;-69
2022/01/15 03:17:36;;;;;;;5.37;1.20;;;;;;;;;;5054016;28;20995;-69
2022/01/15 03:20:03;;;;;;;6.93;1.17;;;;;;;;;;5071007;28;20454;-68
2022/01/15 03:22:30;;;;;;;8.57;1.30;;;;;;;;;;5063775;28;20494;-69
2022/01/15 03:24:56;;;;;;;5.80;1.60;;;;;;;;;;5073646;28;20440;-69
2022/01/15 03:27:24;;;;;;;4.37;0.90;;;;;;;;;;5071963;28;20432;-69
2022/01/15 03:29:52;;;;;;;3.53;0.70;;;;;;;;;;5071623;28;20566;-69
2022/01/15 03:32:19;;;;;;;5.93;1.20;;;;;;;;;;5070491;28;20437;-69
2022/01/15 03:34:46;;;;;;;5.50;1.33;;;;;;;;;;5070997;28;20574;-68
2022/01/15 03:37:13;;;;;;;6.20;1.27;;;;;;;;;;5071125;28;20532;-69
2022/01/15 03:39:39;;;;;;;4.03;1.00;;;;;;;;;;5052598;28;20530;-69
2022/01/15 03:42:12;;;;;;;7.20;1.27;;;;;;;;;;5052999;28;21167;-69
2022/01/15 03:44:42;;;;;;;5.47;1.30;;;;;;;;;;5071342;28;20443;-69
2022/01/15 03:47:09;;;;;;;9.27;1.33;;;;;;;;;;5052720;28;20847;-68
2022/01/15 03:49:36;;;;;;;5.37;1.27;;;;;;;;;;5048741;28;20472;-69
2022/01/15 03:52:03;;;;;;;6.30;1.40;;;;;;;;;;5038166;28;20467;-69
2022/01/15 03:54:29;;;;;;;7.23;1.40;;;;;;;;;;5052820;28;20445;-69
2022/01/15 03:56:56;;;;;;;5.07;1.40;;;;;;;;;;5070764;28;20485;-69
2022/01/15 03:59:23;;;;;;;4.57;1.30;;;;;;;;;;5070385;28;20452;-68
2022/01/15 04:01:49;;;;;;;5.57;0.97;;;;;;;;;;5070589;28;20460;-69
2022/01/15 04:04:16;;;;;;;8.90;1.60;;;;;;;;;;5049317;28;20480;-69
2022/01/15 04:06:43;;;;;;;6.03;1.20;;;;;;;;;;5049180;28;20473;-68
2022/01/15 04:09:12;;;;;;;7.77;1.63;;;;;;;;;;5048966;28;21170;-69
2022/01/15 04:11:39;;;;;;;4.63;1.10;;;;;;;;;;5050858;28;20516;-69
2022/01/15 04:14:06;;;;;;;4.87;1.27;;;;;;;;;;5049132;28;20457;-69
2022/01/15 04:16:32;;;;;;;8.93;1.40;;;;;;;;;;5048509;28;20480;-69
2022/01/15 04:18:59;;;;;;;3.77;1.00;;;;;;;;;;5049131;28;20479;-69
2022/01/15 04:21:26;;;;;;;3.43;0.93;;;;;;;;;;5049546;28;20465;-69
2022/01/15 04:23:53;;;;;;;6.97;1.37;;;;;;;;;;5049169;28;20500;-69
2022/01/15 04:26:24;;;;;;;4.70;1.13;;;;;;;;;;5049265;28;20834;-69
2022/01/15 04:28:51;;;;;;;4.97;1.30;;;;;;;;;;5049442;28;20445;-69
2022/01/15 04:31:18;;;;;;;5.87;1.40;;;;;;;;;;5035434;28;21001;-69
2022/01/15 04:33:45;;;;;;;6.60;1.17;;;;;;;;;;5048813;28;20441;-69
2022/01/15 04:36:12;;;;;;;6.50;1.40;;;;;;;;;;5048088;28;20449;-68
2022/01/15 04:38:44;;;;;;;3.87;1.20;;;;;;;;;;5050212;28;20421;-69
2022/01/15 04:41:11;;;;;;;4.60;1.40;;;;;;;;;;5048720;28;20442;-69
2022/01/15 04:43:38;;;;;;;8.53;1.50;;;;;;;;;;5050060;28;20440;-69
2022/01/15 04:46:05;;;;;;;6.47;1.40;;;;;;;;;;5049122;28;20434;-69
2022/01/15 04:48:31;;;;;;;6.43;1.33;;;;;;;;;;5050306;28;20536;-68
2022/01/15 04:50:59;;;;;;;6.97;1.40;;;;;;;;;;5046880;28;20465;-69
2022/01/15 04:53:25;;;;;;;5.40;1.27;;;;;;;;;;5034442;28;20530;-68
2022/01/15 04:55:52;;;;;;;9.90;1.80;;;;;;;;;;5047099;28;20499;-69
2022/01/15 04:58:18;;;;;;;9.10;1.70;;;;;;;;;;5049406;28;20957;-68
2022/01/15 05:00:45;;;;;;;9.67;2.10;;;;;;;;;;5048256;28;20441;-69
2022/01/15 05:03:12;;;;;;;5.50;1.60;;;;;;;;;;5049431;28;20486;-68
2022/01/15 05:05:38;;;;;;;6.00;1.53;;;;;;;;;;5009184;28;20830;-69
2022/01/15 05:08:06;;;;;;;6.33;1.70;;;;;;;;;;5017744;28;20449;-68
2022/01/15 05:10:32;;;;;;;10.47;1.70;;;;;;;;;;5028507;28;20510;-68
2022/01/15 05:13:01;;;;;;;6.20;1.33;;;;;;;;;;5029731;28;20430;-68
2022/01/15 05:15:28;;;;;;;8.47;1.87;;;;;;;;;;5028901;28;20531;-68
2022/01/15 05:17:55;;;;;;;6.57;1.83;;;;;;;;;;5029016;28;20464;-69
2022/01/15 05:20:22;;;;;;;5.50;1.77;;;;;;;;;;5022990;28;20470;-69
2022/01/15 05:22:49;;;;;;;6.40;1.60;;;;;;;;;;5028748;28;20469;-69
2022/01/15 05:25:19;;;;;;;5.93;1.60;;;;;;;;;;5028224;28;20472;-68
2022/01/15 05:27:46;;;;;;;4.67;1.63;;;;;;;;;;5029122;28;20451;-68
2022/01/15 05:30:12;;;;;;;5.97;1.70;;;;;;;;;;5027926;28;20521;-69
2022/01/15 05:32:39;;;;;;;6.97;1.67;;;;;;;;;;5028976;28;20450;-69
2022/01/15 05:35:06;;;;;;;6.30;1.90;;;;;;;;;;5027062;28;20473;-68
2022/01/15 05:37:32;;;;;;;6.73;1.57;;;;;;;;;;5029507;28;20429;-68
2022/01/15 05:39:59;;;;;;;6.80;1.43;;;;;;;;;;5029127;28;20478;-69
2022/01/15 05:42:25;;;;;;;8.63;1.47;;;;;;;;;;5027120;28;20478;-68
2022/01/15 05:44:52;;;;;;;7.73;1.37;;;;;;;;;;5029181;28;20430;-68
2022/01/15 05:47:20;;;;;;;7.33;1.23;;;;;;;;;;5029819;28;20533;-69
2022/01/15 05:49:47;;;;;;;8.63;1.77;;;;;;;;;;5028638;28;20547;-68
2022/01/15 05:52:13;;;;;;;4.93;1.47;;;;;;;;;;5027050;28;20451;-68
2022/01/15 05:54:40;;;;;;;5.47;1.40;;;;;;;;;;5027757;28;20837;-68
2022/01/15 05:57:08;;;;;;;4.63;1.63;;;;;;;;;;5028414;28;20442;-68
2022/01/15 05:59:34;;;;;;;6.40;1.23;;;;;;;;;;5029208;28;20528;-69
2022/01/15 06:02:06;;;;;;;8.13;1.53;;;;;;;;;;5028585;28;20449;-68
2022/01/15 06:04:33;;;;;;;8.43;1.53;;;;;;;;;;5052606;28;20459;-69
2022/01/15 06:06:59;;;;;;;5.53;1.60;;;;;;;;;;5072617;28;20551;-69
2022/01/15 06:09:26;;;;;;;7.30;1.47;;;;;;;;;;5071392;28;20559;-68
2022/01/15 06:11:55;;;;;;;10.70;1.87;;;;;;;;;;5071061;28;20443;-68
2022/01/15 06:14:22;;;;;;;9.70;1.80;;;;;;;;;;5072829;28;20440;-68
2022/01/15 06:16:49;;;;;;;5.53;1.60;;;;;;;;;;5071566;28;20486;-69
2022/01/15 06:19:15;;;;;;;8.10;1.80;;;;;;;;;;5072368;28;20468;-68
2022/01/15 06:21:42;;;;;;;6.70;1.57;;;;;;;;;;5054330;28;20440;-68
2022/01/15 06:24:08;;;;;;;8.10;1.77;;;;;;;;;;5072186;28;20451;-68
2022/01/15 06:26:35;;;;;;;8.73;2.10;;;;;;;;;;5071105;28;20963;-70
2022/01/15 06:29:02;;;;;;;5.87;1.60;;;;;;;;;;5070897;28;20436;-70
2022/01/15 06:31:30;;;;;;;9.60;2.50;;;;;;;;;;5053919;28;20872;-69
2022/01/15 06:33:58;;;;;;;8.97;2.10;;;;;;;;;;5072385;28;20942;-70
2022/01/15 06:36:24;;;;;;;9.30;2.17;;;;;;;;;;5071223;28;20440;-71
2022/01/15 06:38:51;;;;;;;8.70;2.10;;;;;;;;;;5049196;28;20536;-72
2022/01/15 06:41:23;;;;;;;6.03;2.00;;;;;;;;;;5053285;28;20884;-72
2022/01/15 06:43:49;;;;;;;10.60;2.10;;;;;;;;;;5052332;28;20439;-72
2022/01/15 06:46:16;;;;;;;8.37;3.43;;;;;;;;;;5064864;28;20455;-72
2022/01/15 06:48:45;;;;;;;12.23;3.33;;;;;;;;;;5055240;28;20494;-74
2022/01/15 06:51:12;;;;;;;13.77;3.43;;;;;;;;;;5055728;28;20812;-70
2022/01/15 06:53:38;;;;;;;12.50;3.40;;;;;;;;;;5071081;28;20993;-71
2022/01/15 06:56:06;;;;;;;12.33;3.90;;;;;;;;;;5050894;28;20520;-69
2022/01/15 06:58:33;;;;;;;12.03;4.17;;;;;;;;;;5058569;28;20537;-70
2022/01/15 07:01:00;;;;;;;10.93;3.87;;;;;;;;;;5075832;28;20436;-69
2022/01/15 07:03:27;;;;;;;17.90;4.27;;;;;;;;;;5050501;28;20448;-70
2022/01/15 07:05:54;;;;;;;12.43;5.30;;;;;;;;;;5071239;28;20435;-69
2022/01/15 07:08:20;;;;;;;14.97;6.13;;;;;;;;;;5079308;28;20448;-70
2022/01/15 07:10:47;;;;;;;12.63;5.57;;;;;;;;;;5052482;28;21190;-69
2022/01/15 07:13:14;;;;;;;14.83;4.73;;;;;;;;;;5073161;28;20469;-69
2022/01/15 07:15:41;;;;;;;15.40;4.30;;;;;;;;;;5069344;28;20491;-69
2022/01/15 07:18:08;;;;;;;9.90;3.43;;;;;;;;;;5066682;28;20448;-70
2022/01/15 07:20:35;;;;;;;9.90;3.77;;;;;;;;;;5083508;28;20442;-71
2022/01/15 07:23:01;;;;;;;11.33;4.17;;;;;;;;;;5056800;28;20474;-70
2022/01/15 07:25:28;;;;;;;11.10;3.73;;;;;;;;;;5064541;28;20535;-70
2022/01/15 07:27:56;;;;;;;10.33;4.17;;;;;;;;;;5071213;28;20452;-72
2022/01/15 07:30:23;;;;;;;13.30;5.10;;;;;;;;;;5070864;28;20670;-70
2022/01/15 07:32:50;;;;;;;13.43;4.80;;;;;;;;;;5069846;28;20437;-70
2022/01/15 07:35:17;;;;;;;12.40;4.70;;;;;;;;;;5070815;28;20433;-70
2022/01/15 07:37:43;;;;;;;10.93;3.63;;;;;;;;;;5069670;28;20428;-70
2022/01/15 07:40:10;;;;;;;16.73;4.30;;;;;;;;;;5051693;28;20531;-70
2022/01/15 07:42:38;;;;;;;8.37;2.83;;;;;;;;;;5068689;28;20523;-70
2022/01/15 07:45:06;;;;;;;9.20;2.87;;;;;;;;;;5069578;28;20439;-70
2022/01/15 07:47:33;;;;;;;8.40;2.70;;;;;;;;;;5034518;28;20498;-70
2022/01/15 07:50:00;;;;;;;10.37;3.27;;;;;;;;;;5051747;28;20467;-70
2022/01/15 07:52:26;;;;;;;11.50;3.80;;;;;;;;;;5068307;28;20448;-71
2022/01/15 07:54:53;;;;;;;9.83;3.03;;;;;;;;;;5068526;28;20943;-71
2022/01/15 07:57:20;;;;;;;9.20;2.90;;;;;;;;;;5068806;28;20432;-71
2022/01/15 07:59:48;;;;;;;13.13;3.80;;;;;;;;;;5035326;28;20527;-71
2022/01/15 08:02:14;;;;;;;14.43;3.27;;;;;;;;;;5051724;28;20537;-70
2022/01/15 08:04:42;;;;;;;8.40;2.77;;;;;;;;;;5070328;28;20478;-70
2022/01/15 08:07:09;;;;;;;11.57;2.97;;;;;;;;;;5052179;28;20437;-70
2022/01/15 08:09:36;;;;;;;10.27;3.03;;;;;;;;;;5069754;28;20516;-71
2022/01/15 08:12:04;;;;;;;10.93;3.63;;;;;;;;;;5068552;28;20496;-71
2022/01/15 08:14:30;;;;;;;11.03;3.27;;;;;;;;;;5051735;28;20455;-71
2022/01/15 08:16:57;;;;;;;10.50;3.47;;;;;;;;;;5035010;28;20491;-72
2022/01/15 08:19:24;;;;;;;6.90;2.33;;;;;;;;;;5061347;28;20438;-72
2022/01/15 08:21:51;;;;;;;8.33;2.63;;;;;;;;;;5067027;28;20545;-72
2022/01/15 08:24:18;;;;;;;7.87;2.40;;;;;;;;;;5053303;28;20525;-72
2022/01/15 08:26:47;;;;;;;5.83;1.63;;;;;;;;;;5030896;28;20491;-72
2022/01/15 08:29:14;;;;;;;8.43;2.43;;;;;;;;;;5038533;28;20445;-72
2022/01/15 08:31:42;;;;;;;6.67;2.40;;;;;;;;;;5051291;28;20870;-72
2022/01/15 08:34:09;;;;;;;5.57;2.23;;;;;;;;;;5068597;28;20485;-72
2022/01/15 08:36:38;;;;;;;6.53;2.53;;;;;;;;;;5050278;28;20444;-71
2022/01/15 08:39:05;;;;;;;9.37;2.50;;;;;;;;;;5068344;28;20927;-71
2022/01/15 08:41:32;;;;;;;10.80;2.70;;;;;;;;;;5046975;28;20445;-71
2022/01/15 08:43:59;;;;;;;10.00;2.63;;;;;;;;;;5064177;28;20447;-70
2022/01/15 08:46:27;;;;;;;9.90;2.73;;;;;;;;;;5050524;28;20190;-70
2022/01/15 08:48:54;;;;;;;8.07;2.80;;;;;;;;;;5068457;28;20428;-71
2022/01/15 08:51:21;;;;;;;8.53;2.30;;;;;;;;;;5049618;28;21261;-70
2022/01/15 08:53:48;;;;;;;6.17;2.40;;;;;;;;;;5048661;28;20875;-70
2022/01/15 08:56:15;;;;;;;6.77;2.27;;;;;;;;;;5014270;28;20909;-71
2022/01/15 08:58:42;;;;;;;14.50;3.00;;;;;;;;;;5048839;28;20430;-70
2022/01/15 09:01:13;;;;;;;13.03;3.17;;;;;;;;;;5017571;28;20547;-71
2022/01/15 09:03:41;;;;;;;8.30;2.63;;;;;;;;;;5050678;28;20629;-71
2022/01/15 09:06:09;;;;;;;8.53;2.10;;;;;;;;;;5049725;28;20205;-70
2022/01/15 09:08:38;;;;;;;7.27;2.40;;;;;;;;;;5052006;28;20627;-70
2022/01/15 09:11:05;;;;;;;7.77;2.20;;;;;;;;;;5050486;28;20621;-71
2022/01/15 09:13:32;;;;;;;7.33;2.10;;;;;;;;;;5068467;28;20182;-71
2022/01/15 09:15:59;;;;;;;8.90;2.60;;;;;;;;;;5068119;28;20807;-71
2022/01/15 09:18:29;;;;;;;6.50;1.90;;;;;;;;;;5011605;28;20622;-71
2022/01/15 09:20:57;;;;;;;8.60;2.30;;;;;;;;;;5016835;28;20179;-71
2022/01/15 09:23:24;;;;;;;6.07;2.30;;;;;;;;;;5050699;28;20190;-71
2022/01/15 09:25:53;;;;;;;8.07;2.30;;;;;;;;;;5067507;28;20273;-71
2022/01/15 09:31:06;;;;;;;8.90;2.70;;;;;;;;;;5048878;28;20329;-71
2022/01/15 09:33:33;;;;;;;4.80;2.50;;;;;;;;;;5068532;28;20178;-71
2022/01/15 09:36:00;;;;;;;7.13;2.53;;;;;;;;;;5041658;28;20186;-71
2022/01/15 09:38:28;;;;;;;9.63;2.40;;;;;;;;;;5067537;28;20190;-71
2022/01/15 09:40:56;;;;;;;9.17;2.63;;;;;;;;;;5051273;28;20190;-70
2022/01/15 09:43:23;;;;;;;6.17;2.40;;;;;;;;;;5043795;28;20220;-71
2022/01/15 09:45:51;;;;;;;11.57;3.20;;;;;;;;;;5067574;28;20688;-71
2022/01/15 09:48:18;;;;;;;10.40;3.53;;;;;;;;;;5067626;28;20864;-71
2022/01/15 09:50:45;;;;;;;14.97;5.03;;;;;;;;;;5053452;28;20220;-71
2022/01/15 09:53:16;;;;;;;8.67;3.13;;;;;;;;;;5074846;28;20202;-71
2022/01/15 09:55:43;;;;;;;11.70;3.40;;;;;;;;;;5045077;28;20193;-71
2022/01/15 09:58:10;;;;;;;8.80;3.03;;;;;;;;;;5034260;28;20199;-71
2022/01/15 10:00:37;;;;;;;8.03;2.73;;;;;;;;;;5067713;28;20188;-71
2022/01/15 10:03:04;;;;;;;7.60;3.03;;;;;;;;;;5064195;28;20186;-71
2022/01/15 10:05:31;;;;;;;6.63;2.70;;;;;;;;;;5030125;28;20218;-72
2022/01/15 10:08:09;;;;;;;8.77;3.07;;;;;;;;;;5044570;28;20293;-72
2022/01/15 10:10:38;;;;;;;9.60;3.63;;;;;;;;;;5047146;28;20190;-72
2022/01/15 10:13:13;;;;;;;8.33;3.30;;;;;;;;;;5045183;28;20187;-72
2022/01/15 10:15:41;;;;;;;6.87;2.30;;;;;;;;;;5026044;28;20191;-72
2022/01/15 10:18:18;;;;;;;7.53;2.33;;;;;;;;;;5031445;28;20245;-72
2022/01/15 10:20:45;;;;;;;7.00;2.47;;;;;;;;;;5041958;28;20228;-71
2022/01/15 10:23:16;;;;;;;11.17;2.97;;;;;;;;;;5034736;28;20192;-70
2022/01/15 10:25:44;;;;;;;6.80;2.67;;;;;;;;;;5025900;28;20218;-70
2022/01/15 10:28:11;;;;;;;7.90;2.90;;;;;;;;;;5042918;28;20210;-70
2022/01/15 10:30:41;;;;;;;12.57;4.30;;;;;;;;;;5032374;28;20278;-71
2022/01/15 10:33:09;;;;;;;10.13;4.30;;;;;;;;;;5017504;28;20223;-71
2022/01/15 10:35:42;;;;;;;9.43;3.93;;;;;;;;;;5027275;28;20274;-71
2022/01/15 10:38:15;;;;;;;9.63;3.47;;;;;;;;;;5010245;28;20219;-71
2022/01/15 10:40:45;;;;;;;6.90;2.70;;;;;;;;;;5035603;28;20193;-71
2022/01/15 10:43:13;;;;;;;7.50;2.50;;;;;;;;;;5047238;28;20218;-71
2022/01/15 10:45:51;;;;;;;7.63;2.30;;;;;;;;;;5046842;28;20182;-71
2022/01/15 10:48:22;;;;;;;6.57;2.17;;;;;;;;;;5045204;28;20190;-71
2022/01/15 10:51:02;;;;;;;6.53;2.43;;;;;;;;;;5043900;28;20207;-71
2022/01/15 10:53:34;;;;;;;7.63;2.20;;;;;;;;;;5038740;28;20274;-71
2022/01/15 10:56:01;;;;;;;6.17;1.83;;;;;;;;;;5048778;28;20183;-71
2022/01/15 10:58:28;;;;;;;10.60;2.00;;;;;;;;;;5053783;28;20194;-69
2022/01/15 11:00:55;;;;;;;8.77;2.10;;;;;;;;;;5071318;28;20204;-68
2022/01/15 11:03:22;;;;;;;7.93;1.77;;;;;;;;;;5038275;28;20202;-69
2022/01/15 11:05:50;;;;;;;5.07;1.70;;;;;;;;;;5053504;28;20218;-68
2022/01/15 11:08:27;;;;;;;6.47;1.80;;;;;;;;;;5049579;28;20738;-68
2022/01/15 11:11:02;;;;;;;6.70;1.53;;;;;;;;;;5043976;28;20281;-69
2022/01/15 11:13:32;;;;;;;4.47;1.70;;;;;;;;;;5047582;28;20181;-70
2022/01/15 11:16:10;;;;;;;10.47;4.20;;;;;;;;;;5047369;28;20654;-69
2022/01/15 11:18:38;;;;;;;4.40;1.50;;;;;;;;;;5064629;28;20194;-69
2022/01/15 11:21:05;;;;;;;5.00;1.83;;;;;;;;;;5019048;28;20673;-70
2022/01/15 11:23:32;;;;;;;14.70;4.67;;;;;;;;;;5037960;28;20190;-70
2022/01/15 11:26:00;;;;;;;13.93;5.20;;;;;;;;;;5040410;28;20201;-70
2022/01/15 11:28:28;;;;;;;13.00;4.20;;;;;;;;;;5048927;28;20194;-69
2022/01/15 11:30:56;;;;;;;6.90;2.00;;;;;;;;;;5039513;28;20206;-70
2022/01/15 11:33:25;;;;;;;4.70;1.77;;;;;;;;;;5047756;28;20198;-69
2022/01/15 11:35:52;;;;;;;6.37;2.90;;;;;;;;;;5036255;28;20179;-69
2022/01/15 11:38:37;;;;;;;9.57;2.37;;;;;;;;;;5040939;28;20196;-69
2022/01/15 11:41:05;;;;;;;7.00;2.23;;;;;;;;;;5071247;28;20226;-69
2022/01/15 11:43:33;;;;;;;8.03;3.83;;;;;;;;;;5048903;28;20183;-69
2022/01/15 11:46:04;;;;;;;7.20;2.93;;;;;;;;;;5057822;28;20239;-69
2022/01/15 11:48:35;;;;;;;6.43;3.17;;;;;;;;;;5043345;28;20235;-68
2022/01/15 11:51:14;;;;;;;4.13;2.10;;;;;;;;;;5040725;28;20178;-69
2022/01/15 11:53:47;;;;;;;6.27;2.07;;;;;;;;;;5031770;28;20187;-67
2022/01/15 11:56:14;;;;;;;5.97;2.13;;;;;;;;;;5041557;28;20549;-66
2022/01/15 11:58:41;;;;;;;6.43;1.70;;;;;;;;;;5070886;28;20205;-67
2022/01/15 12:01:15;;;;;;;8.53;2.30;;;;;;;;;;5070400;28;20190;-67
2022/01/15 12:03:42;;;;;;;3.83;1.97;;;;;;;;;;5049044;28;20189;-67
2022/01/15 12:06:09;;;;;;;6.77;2.43;;;;;;;;;;5024879;28;20195;-68
2022/01/15 12:08:36;;;;;;;7.00;2.10;;;;;;;;;;5057594;28;20223;-69
2022/01/15 12:11:03;;;;;;;6.03;2.60;;;;;;;;;;5071924;28;20655;-69
2022/01/15 12:13:34;;;;;;;5.10;1.93;;;;;;;;;;5062588;28;20182;-68
2022/01/15 12:16:28;;;;;;;5.00;1.60;;;;;;;;;;5033950;28;20187;-68
2022/01/15 12:18:56;;;;;;;7.63;2.83;;;;;;;;;;5049131;28;20208;-69
2022/01/15 12:21:42;;;;;;;11.57;2.30;;;;;;;;;;5049087;28;20193;-68
2022/01/15 12:24:27;;;;;;;3.00;1.30;;;;;;;;;;5057375;28;20705;-68
2022/01/15 12:27:00;;;;;;;5.53;2.10;;;;;;;;;;5054477;28;20553;-68
2022/01/15 12:29:28;;;;;;;6.80;3.07;;;;;;;;;;5039257;28;20187;-72
2022/01/15 12:31:56;;;;;;;9.17;4.53;;;;;;;;;;5068943;28;20198;-72
2022/01/15 12:34:28;;;;;;;5.80;2.27;;;;;;;;;;5064271;28;20440;-72
2022/01/15 12:36:55;;;;;;;7.07;2.97;;;;;;;;;;5052780;28;20251;-72
2022/01/15 12:39:32;;;;;;;7.00;2.67;;;;;;;;;;5074034;28;20186;-72
2022/01/15 12:41:59;;;;;;;5.47;1.90;;;;;;;;;;5045224;28;20196;-72
2022/01/15 12:44:25;;;;;;;3.27;1.67;;;;;;;;;;5065951;28;20178;-72
2022/01/15 12:46:57;;;;;;;3.97;1.80;;;;;;;;;;5048671;28;20224;-72
2022/01/15 12:49:35;;;;;;;7.60;3.60;;;;;;;;;;5053750;28;20306;-72
2022/01/15 12:52:09;;;;;;;14.73;6.63;;;;;;;;;;5048465;28;20696;-72
2022/01/15 12:54:36;;;;;;;5.57;2.47;;;;;;;;;;5030988;28;20913;-72
2022/01/15 12:57:03;;;;;;;5.50;2.90;;;;;;;;;;5045637;28;20227;-72
2022/01/15 12:59:30;;;;;;;4.90;1.90;;;;;;;;;;5056370;28;20227;-72
2022/01/15 13:01:57;;;;;;;9.27;3.40;;;;;;;;;;5036544;28;20541;-72
2022/01/15 13:04:24;;;;;;;26.27;10.67;;;;;;;;;;5021989;28;20231;-72
2022/01/15 13:07:00;;;;;;;8.50;3.00;;;;;;;;;;5057000;28;20194;-72
2022/01/15 13:09:44;;;;;;;4.97;2.23;;;;;;;;;;5060465;28;20272;-71
2022/01/15 13:12:11;;;;;;;6.57;2.70;;;;;;;;;;5046213;28;20369;-71
2022/01/15 13:14:39;;;;;;;6.03;2.00;;;;;;;;;;5031584;28;20252;-71
2022/01/15 13:17:20;;;;;;;11.20;5.87;;;;;;;;;;5027850;28;20280;-72
2022/01/15 13:19:47;;;;;;;6.03;2.40;;;;;;;;;;5055598;28;20534;-71
2022/01/15 13:22:18;;;;;;;8.43;2.10;;;;;;;;;;5062709;28;20441;-72
2022/01/15 13:24:44;;;;;;;8.10;2.57;;;;;;;;;;5030655;28;20214;-72
2022/01/15 13:27:12;;;;;;;6.47;1.80;;;;;;;;;;5015735;28;21010;-71
2022/01/15 13:29:43;;;;;;;8.87;3.23;;;;;;;;;;5063396;28;20194;-72
2022/01/15 13:32:09;;;;;;;7.27;2.80;;;;;;;;;;5064192;28;20211;-72
2022/01/15 13:34:37;;;;;;;6.27;2.70;;;;;;;;;;5051038;28;20217;-71
2022/01/15 13:37:06;;;;;;;6.37;2.50;;;;;;;;;;5047263;28;20456;-72
2022/01/15 13:39:33;;;;;;;6.23;1.90;;;;;;;;;;5044439;28;20563;-71
2022/01/15 13:42:00;;;;;;;8.60;2.83;;;;;;;;;;5046206;28;20444;-72
2022/01/15 13:44:29;;;;;;;6.57;2.40;;;;;;;;;;5039375;28;20468;-71
2022/01/15 13:47:04;;;;;;;7.10;2.43;;;;;;;;;;5066473;28;20782;-71
2022/01/15 13:53:04;;;;;;;6.63;4.23;;;;;;;;;;5055938;28;20783;-71
2022/01/15 13:55:14;;;;;;;7.43;2.50;;;;;;;;;;5030574;28;20535;-71
2022/01/15 13:57:44;;;;;;;8.80;2.47;;;;;;;;;;5018145;28;20976;-71
2022/01/15 14:00:13;;;;;;;7.27;2.80;;;;;;;;;;5044914;28;20567;-71
2022/01/15 14:02:41;;;;;;;9.40;3.20;;;;;;;;;;5047619;28;20452;-71
2022/01/15 14:05:10;;;;;;;8.93;2.70;;;;;;;;;;5067995;28;20456;-71
2022/01/15 14:07:41;;;;;;;8.33;2.73;;;;;;;;;;5063132;28;20460;-68
2022/01/15 14:10:10;;;;;;;7.27;2.67;;;;;;;;;;5068721;28;20894;-71
2022/01/15 14:12:40;;;;;;;10.33;5.50;;;;;;;;;;5074375;28;20475;-70
2022/01/15 14:15:17;;;;;;;11.20;4.93;;;;;;;;;;5057165;28;20439;-71
2022/01/15 14:17:48;;;;;;;8.60;4.17;;;;;;;;;;5066503;28;21038;-70
2022/01/15 14:20:39;;;;;;;12.00;3.17;;;;;;;;;;5071176;28;20459;-68
2022/01/15 14:23:09;;;;;;;8.13;4.20;;;;;;;;;;5074473;28;20539;-72
2022/01/15 14:25:39;;;;;;;11.23;3.50;;;;;;;;;;5061814;28;20446;-69
2022/01/15 14:28:11;;;;;;;9.93;3.83;;;;;;;;;;5054853;28;21123;-65
2022/01/15 14:30:42;;;;;;;18.13;9.13;;;;;;;;;;5071155;28;20495;-74
2022/01/15 14:33:12;;;;;;;12.93;4.83;;;;;;;;;;5071206;28;20466;-72
2022/01/15 14:35:39;;;;;;;9.53;4.10;;;;;;;;;;5075996;28;20432;-74
2022/01/15 14:38:07;;;;;;;13.03;4.10;;;;;;;;;;5067344;28;20490;-68
2022/01/15 14:40:34;;;;;;;15.73;5.63;;;;;;;;;;5082035;28;20440;-68
2022/01/15 14:43:09;;;;;;;18.90;6.77;;;;;;;;;;5078302;28;20438;-68
2022/01/15 14:45:39;;;;;;;18.30;7.10;;;;;;;;;;5082444;28;20520;-68
2022/01/15 14:48:06;;;;;;;15.50;6.80;;;;;;;;;;5083146;28;21229;-70
2022/01/15 14:50:34;;;;;;;19.17;5.83;;;;;;;;;;5051736;28;20925;-72
2022/01/15 14:53:03;;;;;;;16.67;5.47;;;;;;;;;;5068663;28;20483;-69
2022/01/15 14:55:30;;;;;;;12.40;5.17;;;;;;;;;;5050683;28;20450;-69
2022/01/15 14:57:58;;;;;;;12.77;5.00;;;;;;;;;;5067849;28;20463;-71
2022/01/15 15:00:25;;;;;;;13.73;5.53;;;;;;;;;;5078787;28;21004;-72
2022/01/15 15:02:54;;;;;;;14.60;5.90;;;;;;;;;;5070019;28;20452;-70
2022/01/15 15:05:21;;;;;;;16.40;6.33;;;;;;;;;;5073844;28;20471;-70
2022/01/15 15:07:49;;;;;;;17.50;6.60;;;;;;;;;;5071677;28;20435;-70
2022/01/15 15:10:16;;;;;;;17.43;6.77;;;;;;;;;;5076483;28;20436;-69
2022/01/15 15:12:55;;;;;;;18.57;7.40;;;;;;;;;;5076884;28;21323;-70
2022/01/15 15:15:22;;;;;;;22.17;8.67;;;;;;;;;;5048950;28;20485;-69
2022/01/15 15:17:49;;;;;;;22.50;8.53;;;;;;;;;;5066860;28;21004;-69
2022/01/15 15:20:16;;;;;;;19.13;8.37;;;;;;;;;;5052407;28;21117;-71
2022/01/15 15:22:43;;;;;;;20.10;7.93;;;;;;;;;;5061741;28;20554;-72
2022/01/15 15:25:11;;;;;;;14.40;6.63;;;;;;;;;;5047701;28;20494;-72
2022/01/15 15:27:38;;;;;;;20.17;7.17;;;;;;;;;;5049814;28;20447;-72
2022/01/15 15:30:07;;;;;;;12.47;5.50;;;;;;;;;;5040125;28;20499;-74
2022/01/15 15:32:34;;;;;;;13.20;4.90;;;;;;;;;;5069700;28;20464;-74
2022/01/15 15:35:03;;;;;;;11.20;5.27;;;;;;;;;;5046145;28;20444;-75